sensor_id;sensor_type;location;lat;lon;timestamp;temperature;humidity
36186;DHT22;22228;53.222;7.446;2023-04-01T00:02:02;9.60;99.90
36186;DHT22;22228;53.222;7.446;2023-04-01T00:04:24;9.60;99.90
36186;DHT22;22228;53.222;7.446;2023-04-01T00:06:45;9.60;99.90
36186;DHT22;22228;53.222;7.446;2023-04-01T00:09:06;9.60;99.90
36186;DHT22;22228;53.222;7.446;2023-04-01T00:11:27;9.60;99.90
36186;DHT22;22228;53.222;7.446;2023-04-01T00:13:47;9.60;99.90
36186;DHT22;22228;53.222;7.446;2023-04-01T03:00:32;9.40;99.90
36186;DHT22;22228;53.222;7.446;2023-04-01T03:02:53;9.40;99.90
36186;DHT22;22228;53.222;7.446;2023-04-01T03:05:14;9.40;99.90
36186;DHT22;22228;53.222;7.446;2023-04-01T03:07:35;9.40;99.90
36186;DHT22;22228;53.222;7.446;2023-04-01T03:09:55;9.40;99.90
36186;DHT22;22228;53.222;7.446;2023-04-01T03:12:16;9.30;99.90
36186;DHT22;22228;53.222;7.446;2023-04-01T03:14:42;9.30;99.90
36186;DHT22;22228;53.222;7.446;2023-04-01T03:17:04;9.30;99.90
36186;DHT22;22228;53.222;7.446;2023-04-01T03:19:26;9.40;99.90
36186;DHT22;22228;53.222;7.446;2023-04-01T03:21:46;9.40;99.90
36186;DHT22;22228;53.222;7.446;2023-04-01T03:24:07;9.40;99.90
36186;DHT22;22228;53.222;7.446;2023-04-01T03:26:28;9.40;99.90
36186;DHT22;22228;53.222;7.446;2023-04-01T03:28:48;9.40;99.90
36186;DHT22;22228;53.222;7.446;2023-04-01T03:31:09;9.40;99.90
36186;DHT22;22228;53.222;7.446;2023-04-01T03:33:37;9.40;99.90
36186;DHT22;22228;53.222;7.446;2023-04-01T03:35:57;9.40;99.90
36186;DHT22;22228;53.222;7.446;2023-04-01T03:38:18;9.40;99.90
36186;DHT22;22228;53.222;7.446;2023-04-01T03:40:42;9.40;99.90
36186;DHT22;22228;53.222;7.446;2023-04-01T03:43:04;9.40;99.90
36186;DHT22;22228;53.222;7.446;2023-04-01T03:45:27;9.40;99.90
36186;DHT22;22228;53.222;7.446;2023-04-01T03:47:47;9.40;99.90
36186;DHT22;22228;53.222;7.446;2023-04-01T03:50:10;9.40;99.90
36186;DHT22;22228;53.222;7.446;2023-04-01T03:52:31;9.40;99.90
36186;DHT22;22228;53.222;7.446;2023-04-01T03:54:52;9.40;99.90
36186;DHT22;22228;53.222;7.446;2023-04-01T03:57:12;9.40;99.90
36186;DHT22;22228;53.222;7.446;2023-04-01T03:59:34;9.40;99.90
36186;DHT22;22228;53.222;7.446;2023-04-01T04:01:55;9.40;99.90
36186;DHT22;22228;53.222;7.446;2023-04-01T04:04:16;9.40;99.90
36186;DHT22;22228;53.222;7.446;2023-04-01T04:06:38;9.40;99.90
36186;DHT22;22228;53.222;7.446;2023-04-01T04:08:59;9.40;99.90
36186;DHT22;22228;53.222;7.446;2023-04-01T04:11:21;9.40;99.90
36186;DHT22;22228;53.222;7.446;2023-04-01T04:13:44;9.40;99.90
36186;DHT22;22228;53.222;7.446;2023-04-01T04:16:08;9.40;99.90
36186;DHT22;22228;53.222;7.446;2023-04-01T04:18:30;9.40;99.90
36186;DHT22;22228;53.222;7.446;2023-04-01T04:20:51;9.40;99.90
36186;DHT22;22228;53.222;7.446;2023-04-01T04:23:14;9.40;99.90
36186;DHT22;22228;53.222;7.446;2023-04-01T04:25:34;9.40;99.90
36186;DHT22;22228;53.222;7.446;2023-04-01T04:27:55;9.40;99.90
36186;DHT22;22228;53.222;7.446;2023-04-01T04:30:16;9.40;99.90
36186;DHT22;22228;53.222;7.446;2023-04-01T04:32:36;9.40;99.90
36186;DHT22;22228;53.222;7.446;2023-04-01T04:34:58;9.40;99.90
36186;DHT22;22228;53.222;7.446;2023-04-01T04:37:18;9.40;99.90
36186;DHT22;22228;53.222;7.446;2023-04-01T04:39:41;9.40;99.90
36186;DHT22;22228;53.222;7.446;2023-04-01T04:42:01;9.40;99.90
36186;DHT22;22228;53.222;7.446;2023-04-01T04:44:22;9.30;99.90
36186;DHT22;22228;53.222;7.446;2023-04-01T04:46:42;9.30;99.90
36186;DHT22;22228;53.222;7.446;2023-04-01T04:49:07;9.30;99.90
36186;DHT22;22228;53.222;7.446;2023-04-01T04:51:28;9.30;99.90
36186;DHT22;22228;53.222;7.446;2023-04-01T04:53:49;9.40;99.90
36186;DHT22;22228;53.222;7.446;2023-04-01T04:56:11;9.40;99.90
36186;DHT22;22228;53.222;7.446;2023-04-01T04:58:41;9.40;99.90
36186;DHT22;22228;53.222;7.446;2023-04-01T05:01:09;9.40;99.90
36186;DHT22;22228;53.222;7.446;2023-04-01T05:03:31;9.40;99.90
36186;DHT22;22228;53.222;7.446;2023-04-01T05:05:53;9.40;99.90
36186;DHT22;22228;53.222;7.446;2023-04-01T05:08:14;9.40;99.90
36186;DHT22;22228;53.222;7.446;2023-04-01T05:10:34;9.40;99.90
36186;DHT22;22228;53.222;7.446;2023-04-01T05:12:56;9.40;99.90
36186;DHT22;22228;53.222;7.446;2023-04-01T05:15:17;9.50;99.90
36186;DHT22;22228;53.222;7.446;2023-04-01T05:17:37;9.50;99.90
36186;DHT22;22228;53.222;7.446;2023-04-01T05:19:58;9.50;99.90
36186;DHT22;22228;53.222;7.446;2023-04-01T05:22:19;9.50;99.90
36186;DHT22;22228;53.222;7.446;2023-04-01T05:24:40;9.50;99.90
36186;DHT22;22228;53.222;7.446;2023-04-01T05:27:01;9.50;99.90
36186;DHT22;22228;53.222;7.446;2023-04-01T05:29:24;9.50;99.90
36186;DHT22;22228;53.222;7.446;2023-04-01T05:31:50;9.50;99.90
36186;DHT22;22228;53.222;7.446;2023-04-01T05:34:11;9.50;99.90
36186;DHT22;22228;53.222;7.446;2023-04-01T05:36:32;9.50;99.90
36186;DHT22;22228;53.222;7.446;2023-04-01T05:38:54;9.50;99.90
36186;DHT22;22228;53.222;7.446;2023-04-01T05:41:15;9.50;99.90
36186;DHT22;22228;53.222;7.446;2023-04-01T05:43:39;9.50;99.90
36186;DHT22;22228;53.222;7.446;2023-04-01T05:46:24;9.50;99.90
36186;DHT22;22228;53.222;7.446;2023-04-01T05:49:02;9.50;99.90
36186;DHT22;22228;53.222;7.446;2023-04-01T05:51:23;9.50;99.90
36186;DHT22;22228;53.222;7.446;2023-04-01T05:53:44;9.50;99.90
36186;DHT22;22228;53.222;7.446;2023-04-01T05:56:05;9.50;99.90
36186;DHT22;22228;53.222;7.446;2023-04-01T05:58:31;9.60;99.90
36186;DHT22;22228;53.222;7.446;2023-04-01T06:01:00;9.60;99.90
36186;DHT22;22228;53.222;7.446;2023-04-01T06:03:21;9.60;99.90
36186;DHT22;22228;53.222;7.446;2023-04-01T06:05:43;9.70;99.90
36186;DHT22;22228;53.222;7.446;2023-04-01T06:08:09;9.70;99.90
36186;DHT22;22228;53.222;7.446;2023-04-01T06:10:39;9.80;99.90
36186;DHT22;22228;53.222;7.446;2023-04-01T06:13:07;9.90;99.90
36186;DHT22;22228;53.222;7.446;2023-04-01T06:15:36;9.90;99.90
36186;DHT22;22228;53.222;7.446;2023-04-01T06:18:15;9.90;99.90
36186;DHT22;22228;53.222;7.446;2023-04-01T06:20:47;9.90;99.90
36186;DHT22;22228;53.222;7.446;2023-04-01T06:23:31;9.90;99.90
36186;DHT22;22228;53.222;7.446;2023-04-01T06:26:02;10.00;99.90
36186;DHT22;22228;53.222;7.446;2023-04-01T06:28:42;10.00;99.90
36186;DHT22;22228;53.222;7.446;2023-04-01T06:31:12;10.00;99.90
36186;DHT22;22228;53.222;7.446;2023-04-01T06:33:46;10.00;99.90
36186;DHT22;22228;53.222;7.446;2023-04-01T06:36:34;10.00;99.90
36186;DHT22;22228;53.222;7.446;2023-04-01T06:39:10;10.00;99.90
36186;DHT22;22228;53.222;7.446;2023-04-01T06:44:29;10.10;99.90
36186;DHT22;22228;53.222;7.446;2023-04-01T06:47:24;10.10;99.90
36186;DHT22;22228;53.222;7.446;2023-04-01T06:50:24;10.20;99.90
36186;DHT22;22228;53.222;7.446;2023-04-01T06:53:10;10.20;99.90
36186;DHT22;22228;53.222;7.446;2023-04-01T06:55:55;10.20;99.90
36186;DHT22;22228;53.222;7.446;2023-04-01T06:58:30;10.20;99.90
36186;DHT22;22228;53.222;7.446;2023-04-01T07:00:54;10.20;99.90
36186;DHT22;22228;53.222;7.446;2023-04-01T07:03:21;10.20;99.90
36186;DHT22;22228;53.222;7.446;2023-04-01T07:05:42;10.30;99.90
36186;DHT22;22228;53.222;7.446;2023-04-01T07:08:05;10.30;99.90
36186;DHT22;22228;53.222;7.446;2023-04-01T07:10:34;10.30;99.90
36186;DHT22;22228;53.222;7.446;2023-04-01T07:13:18;10.40;99.90
36186;DHT22;22228;53.222;7.446;2023-04-01T07:15:55;10.50;99.90
36186;DHT22;22228;53.222;7.446;2023-04-01T07:18:25;10.60;99.90
36186;DHT22;22228;53.222;7.446;2023-04-01T07:20:49;10.60;99.90
36186;DHT22;22228;53.222;7.446;2023-04-01T07:23:16;10.70;99.90
36186;DHT22;22228;53.222;7.446;2023-04-01T07:25:52;10.70;99.90
36186;DHT22;22228;53.222;7.446;2023-04-01T07:28:23;10.80;99.90
36186;DHT22;22228;53.222;7.446;2023-04-01T07:31:01;10.90;99.90
36186;DHT22;22228;53.222;7.446;2023-04-01T07:33:28;11.00;99.90
36186;DHT22;22228;53.222;7.446;2023-04-01T07:35:54;11.10;99.90
36186;DHT22;22228;53.222;7.446;2023-04-01T07:38:25;11.10;99.90
36186;DHT22;22228;53.222;7.446;2023-04-01T07:40:55;11.10;99.90
36186;DHT22;22228;53.222;7.446;2023-04-01T07:43:32;11.10;99.90
36186;DHT22;22228;53.222;7.446;2023-04-01T07:46:15;11.10;99.90
36186;DHT22;22228;53.222;7.446;2023-04-01T07:48:43;11.00;99.90
36186;DHT22;22228;53.222;7.446;2023-04-01T07:51:11;11.00;99.90
36186;DHT22;22228;53.222;7.446;2023-04-01T07:53:40;11.10;99.90
36186;DHT22;22228;53.222;7.446;2023-04-01T07:56:09;11.00;99.90
36186;DHT22;22228;53.222;7.446;2023-04-01T07:58:41;11.00;99.90
36186;DHT22;22228;53.222;7.446;2023-04-01T08:01:16;11.00;99.90
36186;DHT22;22228;53.222;7.446;2023-04-01T08:03:55;11.10;99.90
36186;DHT22;22228;53.222;7.446;2023-04-01T08:06:26;11.10;99.90
36186;DHT22;22228;53.222;7.446;2023-04-01T08:08:56;11.10;99.90
36186;DHT22;22228;53.222;7.446;2023-04-01T08:11:50;11.10;99.90
36186;DHT22;22228;53.222;7.446;2023-04-01T08:14:42;11.30;99.90
36186;DHT22;22228;53.222;7.446;2023-04-01T08:17:31;11.40;99.90
36186;DHT22;22228;53.222;7.446;2023-04-01T08:20:07;11.50;99.90
36186;DHT22;22228;53.222;7.446;2023-04-01T08:22:32;11.60;99.90
36186;DHT22;22228;53.222;7.446;2023-04-01T08:25:05;11.60;99.90
36186;DHT22;22228;53.222;7.446;2023-04-01T08:27:33;11.60;99.90
36186;DHT22;22228;53.222;7.446;2023-04-01T08:29:58;11.60;99.90
36186;DHT22;22228;53.222;7.446;2023-04-01T08:32:23;11.60;99.90
36186;DHT22;22228;53.222;7.446;2023-04-01T08:34:50;11.50;99.90
36186;DHT22;22228;53.222;7.446;2023-04-01T08:37:25;11.60;99.90
36186;DHT22;22228;53.222;7.446;2023-04-01T08:39:52;11.60;99.90
36186;DHT22;22228;53.222;7.446;2023-04-01T08:42:41;11.70;99.90
36186;DHT22;22228;53.222;7.446;2023-04-01T08:45:20;11.80;99.90
36186;DHT22;22228;53.222;7.446;2023-04-01T08:50:57;11.80;99.90
36186;DHT22;22228;53.222;7.446;2023-04-01T08:53:37;11.90;99.90
36186;DHT22;22228;53.222;7.446;2023-04-01T08:56:13;11.90;99.90
36186;DHT22;22228;53.222;7.446;2023-04-01T08:58:54;11.80;99.90
36186;DHT22;22228;53.222;7.446;2023-04-01T09:04:43;11.10;99.90
36186;DHT22;22228;53.222;7.446;2023-04-01T09:07:26;10.80;99.90
36186;DHT22;22228;53.222;7.446;2023-04-01T09:10:18;10.60;99.90
36186;DHT22;22228;53.222;7.446;2023-04-01T09:13:03;10.40;99.90
36186;DHT22;22228;53.222;7.446;2023-04-01T09:15:37;10.20;99.90
36186;DHT22;22228;53.222;7.446;2023-04-01T09:18:28;10.20;99.90
36186;DHT22;22228;53.222;7.446;2023-04-01T09:21:09;10.10;99.90
36186;DHT22;22228;53.222;7.446;2023-04-01T09:23:47;10.10;99.90
36186;DHT22;22228;53.222;7.446;2023-04-01T09:26:29;10.10;99.90
36186;DHT22;22228;53.222;7.446;2023-04-01T09:28:55;9.90;99.90
36186;DHT22;22228;53.222;7.446;2023-04-01T09:31:32;9.80;99.90
36186;DHT22;22228;53.222;7.446;2023-04-01T09:34:44;9.70;99.90
36186;DHT22;22228;53.222;7.446;2023-04-01T09:37:20;9.70;99.90
36186;DHT22;22228;53.222;7.446;2023-04-01T09:40:08;9.70;99.90
36186;DHT22;22228;53.222;7.446;2023-04-01T09:42:42;9.70;99.90
36186;DHT22;22228;53.222;7.446;2023-04-01T09:45:21;9.70;99.90
36186;DHT22;22228;53.222;7.446;2023-04-01T09:48:00;9.70;99.90
36186;DHT22;22228;53.222;7.446;2023-04-01T09:50:31;9.90;99.90
36186;DHT22;22228;53.222;7.446;2023-04-01T09:53:02;10.00;99.90
36186;DHT22;22228;53.222;7.446;2023-04-01T09:58:59;10.20;99.90
36186;DHT22;22228;53.222;7.446;2023-04-01T10:02:23;10.10;99.90
36186;DHT22;22228;53.222;7.446;2023-04-01T10:05:06;10.10;99.90
36186;DHT22;22228;53.222;7.446;2023-04-01T10:10:42;10.10;99.90
36186;DHT22;22228;53.222;7.446;2023-04-01T10:16:37;10.00;99.90
36186;DHT22;22228;53.222;7.446;2023-04-01T10:19:30;10.10;99.90
36186;DHT22;22228;53.222;7.446;2023-04-01T10:22:30;10.10;99.90
36186;DHT22;22228;53.222;7.446;2023-04-01T10:25:18;10.10;99.90
36186;DHT22;22228;53.222;7.446;2023-04-01T10:28:24;10.20;99.90
36186;DHT22;22228;53.222;7.446;2023-04-01T10:31:48;10.20;99.90
36186;DHT22;22228;53.222;7.446;2023-04-01T10:34:40;10.20;99.90
36186;DHT22;22228;53.222;7.446;2023-04-01T10:37:14;10.40;99.90
36186;DHT22;22228;53.222;7.446;2023-04-01T10:40:17;10.50;99.90
36186;DHT22;22228;53.222;7.446;2023-04-01T10:43:41;10.60;99.90
36186;DHT22;22228;53.222;7.446;2023-04-01T10:52:33;10.80;99.90
36186;DHT22;22228;53.222;7.446;2023-04-01T10:55:43;11.00;99.90
36186;DHT22;22228;53.222;7.446;2023-04-01T10:59:02;11.20;99.90
36186;DHT22;22228;53.222;7.446;2023-04-01T11:02:23;11.30;99.90
36186;DHT22;22228;53.222;7.446;2023-04-01T11:05:20;11.10;99.90
36186;DHT22;22228;53.222;7.446;2023-04-01T11:13:51;10.60;99.90
36186;DHT22;22228;53.222;7.446;2023-04-01T11:22:29;10.60;99.90
36186;DHT22;22228;53.222;7.446;2023-04-01T11:25:14;10.60;99.90
36186;DHT22;22228;53.222;7.446;2023-04-01T11:31:11;10.30;99.90
36186;DHT22;22228;53.222;7.446;2023-04-01T11:33:39;10.40;99.90
36186;DHT22;22228;53.222;7.446;2023-04-01T11:36:13;10.30;99.90
36186;DHT22;22228;53.222;7.446;2023-04-01T11:41:56;10.60;99.90
36186;DHT22;22228;53.222;7.446;2023-04-01T11:44:43;10.60;99.90
36186;DHT22;22228;53.222;7.446;2023-04-01T11:47:22;10.60;99.90
36186;DHT22;22228;53.222;7.446;2023-04-01T11:49:56;10.70;99.90
36186;DHT22;22228;53.222;7.446;2023-04-01T11:52:59;10.80;99.90
36186;DHT22;22228;53.222;7.446;2023-04-01T11:55:30;10.80;99.90
36186;DHT22;22228;53.222;7.446;2023-04-01T11:58:10;10.90;99.90
36186;DHT22;22228;53.222;7.446;2023-04-01T12:00:57;10.80;99.90
36186;DHT22;22228;53.222;7.446;2023-04-01T12:03:35;10.70;99.90
36186;DHT22;22228;53.222;7.446;2023-04-01T12:06:02;10.50;99.90
36186;DHT22;22228;53.222;7.446;2023-04-01T12:08:31;10.30;99.90
36186;DHT22;22228;53.222;7.446;2023-04-01T12:11:00;10.10;99.90
36186;DHT22;22228;53.222;7.446;2023-04-01T12:13:33;10.00;99.90
36186;DHT22;22228;53.222;7.446;2023-04-01T12:16:08;10.00;99.90
36186;DHT22;22228;53.222;7.446;2023-04-01T12:18:36;10.10;99.90
36186;DHT22;22228;53.222;7.446;2023-04-01T12:21:06;10.10;99.90
36186;DHT22;22228;53.222;7.446;2023-04-01T12:23:59;10.10;99.90
36186;DHT22;22228;53.222;7.446;2023-04-01T12:26:35;10.10;99.90
36186;DHT22;22228;53.222;7.446;2023-04-01T12:29:09;10.10;99.90
36186;DHT22;22228;53.222;7.446;2023-04-01T12:31:45;10.10;99.90
36186;DHT22;22228;53.222;7.446;2023-04-01T12:34:45;10.10;99.90
36186;DHT22;22228;53.222;7.446;2023-04-01T12:37:15;10.00;99.90
36186;DHT22;22228;53.222;7.446;2023-04-01T12:39:51;10.00;99.90
36186;DHT22;22228;53.222;7.446;2023-04-01T12:42:28;9.90;99.90
36186;DHT22;22228;53.222;7.446;2023-04-01T12:45:02;9.80;99.90
36186;DHT22;22228;53.222;7.446;2023-04-01T12:48:00;9.60;99.90
36186;DHT22;22228;53.222;7.446;2023-04-01T12:50:47;9.50;99.90
36186;DHT22;22228;53.222;7.446;2023-04-01T12:53:36;9.50;99.90
36186;DHT22;22228;53.222;7.446;2023-04-01T12:55:59;9.50;99.90
36186;DHT22;22228;53.222;7.446;2023-04-01T12:58:51;9.50;99.90
36186;DHT22;22228;53.222;7.446;2023-04-01T13:01:26;9.40;99.90
36186;DHT22;22228;53.222;7.446;2023-04-01T13:04:13;9.40;99.90
36186;DHT22;22228;53.222;7.446;2023-04-01T13:06:49;9.30;99.90
36186;DHT22;22228;53.222;7.446;2023-04-01T13:09:28;9.30;99.90
36186;DHT22;22228;53.222;7.446;2023-04-01T13:12:07;9.40;99.90
36186;DHT22;22228;53.222;7.446;2023-04-01T13:14:50;9.40;99.90
36186;DHT22;22228;53.222;7.446;2023-04-01T13:17:18;9.40;99.90
36186;DHT22;22228;53.222;7.446;2023-04-01T13:19:46;9.40;99.90
36186;DHT22;22228;53.222;7.446;2023-04-01T13:22:16;9.50;99.90
36186;DHT22;22228;53.222;7.446;2023-04-01T13:24:44;9.60;99.90
36186;DHT22;22228;53.222;7.446;2023-04-01T13:27:11;9.70;99.90
36186;DHT22;22228;53.222;7.446;2023-04-01T13:29:36;9.70;99.90
36186;DHT22;22228;53.222;7.446;2023-04-01T13:32:25;9.70;99.90
36186;DHT22;22228;53.222;7.446;2023-04-01T13:34:59;9.70;99.90
36186;DHT22;22228;53.222;7.446;2023-04-01T13:37:32;9.60;99.90
36186;DHT22;22228;53.222;7.446;2023-04-01T13:40:12;9.60;99.90
36186;DHT22;22228;53.222;7.446;2023-04-01T13:42:39;9.60;99.90
36186;DHT22;22228;53.222;7.446;2023-04-01T13:45:03;9.60;99.90
36186;DHT22;22228;53.222;7.446;2023-04-01T13:50:57;9.70;99.90
36186;DHT22;22228;53.222;7.446;2023-04-01T13:56:26;9.80;99.90
36186;DHT22;22228;53.222;7.446;2023-04-01T13:58:56;9.70;99.90
36186;DHT22;22228;53.222;7.446;2023-04-01T14:01:25;9.60;99.90
36186;DHT22;22228;53.222;7.446;2023-04-01T14:04:14;9.70;99.90
36186;DHT22;22228;53.222;7.446;2023-04-01T14:06:54;9.60;99.90
36186;DHT22;22228;53.222;7.446;2023-04-01T14:09:40;9.50;99.90
36186;DHT22;22228;53.222;7.446;2023-04-01T14:12:07;9.50;99.90
36186;DHT22;22228;53.222;7.446;2023-04-01T14:14:36;9.50;99.90
36186;DHT22;22228;53.222;7.446;2023-04-01T14:17:17;9.40;99.90
36186;DHT22;22228;53.222;7.446;2023-04-01T14:19:56;9.30;99.90
36186;DHT22;22228;53.222;7.446;2023-04-01T14:22:27;9.20;99.90
36186;DHT22;22228;53.222;7.446;2023-04-01T14:25:03;9.30;99.90
36186;DHT22;22228;53.222;7.446;2023-04-01T14:27:35;9.30;99.90
36186;DHT22;22228;53.222;7.446;2023-04-01T14:30:11;9.30;99.90
36186;DHT22;22228;53.222;7.446;2023-04-01T14:32:44;9.30;99.90
36186;DHT22;22228;53.222;7.446;2023-04-01T14:35:25;9.40;99.90
36186;DHT22;22228;53.222;7.446;2023-04-01T14:38:04;9.30;99.90
36186;DHT22;22228;53.222;7.446;2023-04-01T14:40:28;9.30;99.90
36186;DHT22;22228;53.222;7.446;2023-04-01T14:43:13;9.20;99.90
36186;DHT22;22228;53.222;7.446;2023-04-01T14:45:55;9.10;99.90
36186;DHT22;22228;53.222;7.446;2023-04-01T14:48:25;9.00;99.90
36186;DHT22;22228;53.222;7.446;2023-04-01T14:50:50;8.90;99.90
36186;DHT22;22228;53.222;7.446;2023-04-01T14:53:26;8.90;99.90
36186;DHT22;22228;53.222;7.446;2023-04-01T14:55:50;8.80;99.90
36186;DHT22;22228;53.222;7.446;2023-04-01T14:58:12;8.70;99.90
36186;DHT22;22228;53.222;7.446;2023-04-01T15:00:46;8.50;99.90
36186;DHT22;22228;53.222;7.446;2023-04-01T15:03:14;8.50;99.90
36186;DHT22;22228;53.222;7.446;2023-04-01T15:05:45;8.50;99.90
36186;DHT22;22228;53.222;7.446;2023-04-01T15:08:14;8.40;99.90
36186;DHT22;22228;53.222;7.446;2023-04-01T15:10:59;8.40;99.90
36186;DHT22;22228;53.222;7.446;2023-04-01T15:16:15;8.40;99.90
36186;DHT22;22228;53.222;7.446;2023-04-01T15:18:48;8.20;99.90
36186;DHT22;22228;53.222;7.446;2023-04-01T15:24:24;8.10;99.90
36186;DHT22;22228;53.222;7.446;2023-04-01T15:27:06;8.00;99.90
36186;DHT22;22228;53.222;7.446;2023-04-01T15:29:56;8.00;99.90
36186;DHT22;22228;53.222;7.446;2023-04-01T15:32:21;8.00;99.90
36186;DHT22;22228;53.222;7.446;2023-04-01T15:34:52;7.90;99.90
36186;DHT22;22228;53.222;7.446;2023-04-01T15:37:19;7.90;99.90
36186;DHT22;22228;53.222;7.446;2023-04-01T15:39:53;7.80;99.90
36186;DHT22;22228;53.222;7.446;2023-04-01T15:42:31;7.80;99.90
36186;DHT22;22228;53.222;7.446;2023-04-01T15:45:02;7.70;99.90
36186;DHT22;22228;53.222;7.446;2023-04-01T15:47:33;7.70;99.90
36186;DHT22;22228;53.222;7.446;2023-04-01T15:50:06;7.70;99.90
36186;DHT22;22228;53.222;7.446;2023-04-01T15:52:44;7.70;99.90
36186;DHT22;22228;53.222;7.446;2023-04-01T15:55:19;7.70;99.90
36186;DHT22;22228;53.222;7.446;2023-04-01T15:57:47;7.70;99.90
36186;DHT22;22228;53.222;7.446;2023-04-01T16:00:21;7.70;99.90
36186;DHT22;22228;53.222;7.446;2023-04-01T16:02:48;7.60;99.90
36186;DHT22;22228;53.222;7.446;2023-04-01T16:05:26;7.60;99.90
36186;DHT22;22228;53.222;7.446;2023-04-01T16:07:57;7.60;99.90
36186;DHT22;22228;53.222;7.446;2023-04-01T16:13:42;7.50;99.90
36186;DHT22;22228;53.222;7.446;2023-04-01T16:16:11;7.40;99.90
36186;DHT22;22228;53.222;7.446;2023-04-01T16:18:52;7.40;99.90
36186;DHT22;22228;53.222;7.446;2023-04-01T16:21:24;7.30;99.90
36186;DHT22;22228;53.222;7.446;2023-04-01T16:23:50;7.30;99.90
36186;DHT22;22228;53.222;7.446;2023-04-01T16:26:20;7.30;99.90
36186;DHT22;22228;53.222;7.446;2023-04-01T16:28:54;7.30;99.90
36186;DHT22;22228;53.222;7.446;2023-04-01T16:31:23;7.30;99.90
36186;DHT22;22228;53.222;7.446;2023-04-01T16:33:51;7.20;99.90
36186;DHT22;22228;53.222;7.446;2023-04-01T16:36:22;7.20;99.90
36186;DHT22;22228;53.222;7.446;2023-04-01T16:38:52;7.20;99.90
36186;DHT22;22228;53.222;7.446;2023-04-01T16:41:31;7.10;99.90
36186;DHT22;22228;53.222;7.446;2023-04-01T16:43:56;7.10;99.90
36186;DHT22;22228;53.222;7.446;2023-04-01T16:46:34;7.10;99.90
36186;DHT22;22228;53.222;7.446;2023-04-01T16:49:04;7.10;99.90
36186;DHT22;22228;53.222;7.446;2023-04-01T16:51:36;7.00;99.90
36186;DHT22;22228;53.222;7.446;2023-04-01T16:54:04;7.00;99.90
36186;DHT22;22228;53.222;7.446;2023-04-01T16:56:38;7.00;99.90
36186;DHT22;22228;53.222;7.446;2023-04-01T16:59:06;6.90;99.90
36186;DHT22;22228;53.222;7.446;2023-04-01T17:01:33;7.00;99.90
36186;DHT22;22228;53.222;7.446;2023-04-01T17:04:10;6.90;99.90
36186;DHT22;22228;53.222;7.446;2023-04-01T17:06:36;6.90;99.90
36186;DHT22;22228;53.222;7.446;2023-04-01T17:09:25;6.90;99.90
36186;DHT22;22228;53.222;7.446;2023-04-01T17:11:56;6.90;99.90
36186;DHT22;22228;53.222;7.446;2023-04-01T17:14:23;6.80;99.90
36186;DHT22;22228;53.222;7.446;2023-04-01T17:16:55;6.80;99.90
36186;DHT22;22228;53.222;7.446;2023-04-01T17:19:32;6.80;99.90
36186;DHT22;22228;53.222;7.446;2023-04-01T17:22:00;6.80;99.90
36186;DHT22;22228;53.222;7.446;2023-04-01T17:24:30;6.80;99.90
36186;DHT22;22228;53.222;7.446;2023-04-01T17:27:01;6.70;99.90
36186;DHT22;22228;53.222;7.446;2023-04-01T17:29:32;6.70;99.90
36186;DHT22;22228;53.222;7.446;2023-04-01T17:32:01;6.60;99.90
36186;DHT22;22228;53.222;7.446;2023-04-01T17:34:37;6.60;99.90
36186;DHT22;22228;53.222;7.446;2023-04-01T17:37:11;6.60;99.90
36186;DHT22;22228;53.222;7.446;2023-04-01T17:39:48;6.50;99.90
36186;DHT22;22228;53.222;7.446;2023-04-01T17:42:14;6.50;99.90
36186;DHT22;22228;53.222;7.446;2023-04-01T17:44:49;6.50;99.90
36186;DHT22;22228;53.222;7.446;2023-04-01T17:47:26;6.50;99.90
36186;DHT22;22228;53.222;7.446;2023-04-01T17:49:55;6.50;99.90
36186;DHT22;22228;53.222;7.446;2023-04-01T17:52:23;6.40;99.90
36186;DHT22;22228;53.222;7.446;2023-04-01T17:54:52;6.40;99.90
36186;DHT22;22228;53.222;7.446;2023-04-01T17:57:39;6.40;99.90
36186;DHT22;22228;53.222;7.446;2023-04-01T18:00:18;6.50;99.90
36186;DHT22;22228;53.222;7.446;2023-04-01T18:02:45;6.40;99.90
36186;DHT22;22228;53.222;7.446;2023-04-01T18:05:23;6.40;99.90
36186;DHT22;22228;53.222;7.446;2023-04-01T18:08:17;6.40;99.90
36186;DHT22;22228;53.222;7.446;2023-04-01T18:10:57;6.40;99.90
36186;DHT22;22228;53.222;7.446;2023-04-01T18:13:32;6.40;99.90
36186;DHT22;22228;53.222;7.446;2023-04-01T18:16:08;6.40;99.90
36186;DHT22;22228;53.222;7.446;2023-04-01T18:18:43;6.30;99.90
36186;DHT22;22228;53.222;7.446;2023-04-01T18:21:10;6.30;99.90
36186;DHT22;22228;53.222;7.446;2023-04-01T18:23:38;6.30;99.90
36186;DHT22;22228;53.222;7.446;2023-04-01T18:26:04;6.30;99.90
36186;DHT22;22228;53.222;7.446;2023-04-01T18:28:34;6.30;99.90
36186;DHT22;22228;53.222;7.446;2023-04-01T18:30:58;6.30;99.90
36186;DHT22;22228;53.222;7.446;2023-04-01T18:33:31;6.20;99.90
36186;DHT22;22228;53.222;7.446;2023-04-01T18:35:58;6.20;99.90
36186;DHT22;22228;53.222;7.446;2023-04-01T18:38:28;6.20;99.90
36186;DHT22;22228;53.222;7.446;2023-04-01T18:40:53;6.10;99.90
36186;DHT22;22228;53.222;7.446;2023-04-01T18:43:21;6.20;99.90
36186;DHT22;22228;53.222;7.446;2023-04-01T18:45:49;6.10;99.90
36186;DHT22;22228;53.222;7.446;2023-04-01T18:48:27;6.10;99.90
36186;DHT22;22228;53.222;7.446;2023-04-01T18:50:53;6.00;99.90
36186;DHT22;22228;53.222;7.446;2023-04-01T18:53:22;6.00;99.90
36186;DHT22;22228;53.222;7.446;2023-04-01T18:55:47;6.00;99.90
36186;DHT22;22228;53.222;7.446;2023-04-01T18:58:19;6.00;99.90
36186;DHT22;22228;53.222;7.446;2023-04-01T19:00:46;6.00;99.90
36186;DHT22;22228;53.222;7.446;2023-04-01T19:03:12;6.00;99.90
36186;DHT22;22228;53.222;7.446;2023-04-01T19:05:38;6.00;99.90
36186;DHT22;22228;53.222;7.446;2023-04-01T19:08:17;5.90;99.90
36186;DHT22;22228;53.222;7.446;2023-04-01T19:10:42;5.90;99.90
36186;DHT22;22228;53.222;7.446;2023-04-01T19:13:15;5.90;99.90
36186;DHT22;22228;53.222;7.446;2023-04-01T19:15:46;5.90;99.90
36186;DHT22;22228;53.222;7.446;2023-04-01T19:18:25;5.80;99.90
36186;DHT22;22228;53.222;7.446;2023-04-01T19:20:52;5.90;99.90
36186;DHT22;22228;53.222;7.446;2023-04-01T19:23:45;5.80;99.90
36186;DHT22;22228;53.222;7.446;2023-04-01T19:26:12;5.80;99.90
36186;DHT22;22228;53.222;7.446;2023-04-01T19:28:43;5.80;99.90
36186;DHT22;22228;53.222;7.446;2023-04-01T19:31:15;5.80;99.90
36186;DHT22;22228;53.222;7.446;2023-04-01T19:33:52;5.80;99.90
36186;DHT22;22228;53.222;7.446;2023-04-01T19:36:24;5.70;99.90
36186;DHT22;22228;53.222;7.446;2023-04-01T19:38:53;5.70;99.90
36186;DHT22;22228;53.222;7.446;2023-04-01T19:41:29;5.70;99.90
36186;DHT22;22228;53.222;7.446;2023-04-01T19:44:01;5.70;99.90
36186;DHT22;22228;53.222;7.446;2023-04-01T19:46:29;5.60;99.90
36186;DHT22;22228;53.222;7.446;2023-04-01T19:49:02;5.60;99.90
36186;DHT22;22228;53.222;7.446;2023-04-01T19:51:28;5.60;99.90
36186;DHT22;22228;53.222;7.446;2023-04-01T19:54:01;5.60;99.90
36186;DHT22;22228;53.222;7.446;2023-04-01T19:56:24;5.60;99.90
36186;DHT22;22228;53.222;7.446;2023-04-01T19:58:50;5.60;99.90
36186;DHT22;22228;53.222;7.446;2023-04-01T20:01:16;5.50;99.90